Time;durP1;ratioP1;P1;durP2;ratioP2;P2;SDS_P1;SDS_P2;PMS_P1;PMS_P2;Temp;Humidity;BMP_temperature;BMP_pressure;BME280_temperature;BME280_humidity;BME280_pressure;Samples;Min_cycle;Max_cycle;Signal;HPM_P1;HPM_P2
2024/01/29 00:00:53;;;;;;;7.80;3.60;;;11.80;99.90;;;;;;5033351;28;20177;-86
2024/01/29 00:03:19;;;;;;;6.97;3.50;;;12.10;99.90;;;;;;5032966;28;20567;-86
2024/01/29 00:05:44;;;;;;;6.87;3.60;;;11.80;99.90;;;;;;5033080;28;20678;-85
2024/01/29 00:08:10;;;;;;;5.67;3.53;;;11.90;99.90;;;;;;5032837;28;20178;-86
2024/01/29 00:10:37;;;;;;;6.10;3.57;;;;;;;;;;5032984;28;20186;-86
2024/01/29 00:13:02;;;;;;;6.73;3.97;;;11.90;99.90;;;;;;5015419;28;20185;-86
2024/01/29 00:15:28;;;;;;;7.77;3.90;;;11.70;99.90;;;;;;5034709;28;20214;-92
2024/01/29 00:17:54;;;;;;;6.13;4.10;;;12.10;99.90;;;;;;5036442;28;20174;-94
2024/01/29 00:20:19;;;;;;;11.17;4.60;;;11.90;99.90;;;;;;5041939;28;20174;-92
2024/01/29 00:22:46;;;;;;;8.23;4.23;;;;;;;;;;5028803;28;20182;-91
2024/01/29 00:25:12;;;;;;;7.37;3.83;;;11.70;99.90;;;;;;5004214;28;20242;-90
2024/01/29 00:27:38;;;;;;;7.80;4.10;;;11.80;99.90;;;;;;5027400;28;20163;-91
2024/01/29 00:30:06;;;;;;;9.40;4.30;;;12.50;99.90;;;;;;5009929;28;20182;-90
2024/01/29 00:32:31;;;;;;;7.20;4.20;;;11.90;99.90;;;;;;5028506;28;20187;-90
2024/01/29 00:34:57;;;;;;;7.73;4.20;;;;;;;;;;5029027;28;20248;-92
2024/01/29 00:37:23;;;;;;;5.17;3.70;;;11.90;99.90;;;;;;5024464;28;20171;-90
2024/01/29 00:39:50;;;;;;;6.97;4.20;;;11.90;99.90;;;;;;5037126;28;20174;-88
2024/01/29 00:42:16;;;;;;;9.60;4.87;;;;;;;;;;5019310;28;20167;-91
2024/01/29 00:44:42;;;;;;;6.23;3.93;;;11.70;99.90;;;;;;5037280;28;20158;-90
2024/01/29 00:47:09;;;;;;;8.83;4.27;;;;;;;;;;5022284;28;20282;-90
2024/01/29 00:49:35;;;;;;;7.43;4.33;;;11.90;99.90;;;;;;5021046;28;20175;-90
2024/01/29 00:52:04;;;;;;;8.60;4.20;;;;;;;;;;5030912;28;20324;-90
2024/01/29 00:54:30;;;;;;;7.90;4.17;;;11.90;99.90;;;;;;5018876;28;20232;-90
2024/01/29 00:56:56;;;;;;;7.50;4.47;;;11.80;99.90;;;;;;5036820;28;20178;-91
2024/01/29 00:59:22;;;;;;;6.57;4.47;;;11.80;99.90;;;;;;5035893;28;20204;-90
2024/01/29 01:01:48;;;;;;;8.17;4.73;;;11.80;99.90;;;;;;5035282;28;20536;-91
2024/01/29 01:04:15;;;;;;;7.93;4.40;;;11.50;99.90;;;;;;5034982;28;20176;-90
2024/01/29 01:06:41;;;;;;;9.23;4.57;;;;;;;;;;5035169;28;20174;-90
2024/01/29 01:09:09;;;;;;;9.40;4.47;;;;;;;;;;5036684;28;20185;-91
2024/01/29 01:11:35;;;;;;;12.37;5.00;;;11.90;99.90;;;;;;5034581;28;20636;-89
2024/01/29 01:14:01;;;;;;;10.10;4.70;;;;;;;;;;5051403;28;20170;-89
2024/01/29 01:16:27;;;;;;;10.30;5.20;;;;;;;;;;5034375;28;20202;-89
2024/01/29 01:18:53;;;;;;;11.67;5.17;;;11.90;99.90;;;;;;5045562;28;20181;-88
2024/01/29 01:21:19;;;;;;;8.00;4.70;;;11.80;99.90;;;;;;5046500;28;20240;-88
2024/01/29 01:23:46;;;;;;;8.47;4.43;;;;;;;;;;5041902;28;20178;-88
2024/01/29 01:26:11;;;;;;;10.53;4.90;;;12.00;99.90;;;;;;5016147;28;20554;-90
2024/01/29 01:28:37;;;;;;;13.30;5.77;;;11.80;99.90;;;;;;5033975;28;20185;-90
2024/01/29 01:31:03;;;;;;;9.90;4.90;;;12.00;99.90;;;;;;5034468;28;20688;-89
2024/01/29 01:33:29;;;;;;;9.60;5.13;;;;;;;;;;5033816;28;20166;-89
2024/01/29 01:35:54;;;;;;;9.67;4.93;;;12.00;99.90;;;;;;5034263;28;20232;-89
2024/01/29 01:38:20;;;;;;;9.37;5.10;;;;;;;;;;5036189;28;20252;-88
2024/01/29 01:40:46;;;;;;;9.50;4.80;;;12.00;99.90;;;;;;5034704;28;20178;-90
2024/01/29 01:43:23;;;;;;;9.83;5.10;;;12.10;99.90;;;;;;5033148;28;20269;-89
2024/01/29 01:46:03;;;;;;;10.00;4.80;;;11.70;99.90;;;;;;5036959;28;20240;-89
2024/01/29 01:48:31;;;;;;;8.97;4.83;;;11.90;99.90;;;;;;5036928;28;20162;-89
2024/01/29 01:50:57;;;;;;;9.03;4.87;;;12.00;99.90;;;;;;5036969;28;20557;-88
2024/01/29 01:53:23;;;;;;;10.63;4.97;;;;;;;;;;5015277;28;20181;-88
2024/01/29 01:55:49;;;;;;;9.57;5.17;;;;;;;;;;5032474;28;20304;-88
2024/01/29 01:58:18;;;;;;;8.03;4.73;;;11.90;99.90;;;;;;5032279;28;20174;-88
2024/01/29 02:00:44;;;;;;;6.53;4.50;;;11.80;99.90;;;;;;5032546;28;20626;-89
2024/01/29 02:03:09;;;;;;;8.90;5.13;;;11.90;99.90;;;;;;5015009;28;20208;-88
2024/01/29 02:05:36;;;;;;;10.67;5.00;;;11.90;99.90;;;;;;5035583;28;20198;-88
2024/01/29 02:08:03;;;;;;;11.73;5.43;;;12.10;99.90;;;;;;5034625;28;20285;-83
2024/01/29 02:10:29;;;;;;;8.83;4.90;;;11.90;99.90;;;;;;5034915;28;20177;-82
2024/01/29 02:12:55;;;;;;;11.80;5.43;;;11.80;99.90;;;;;;5016870;28;20540;-83
2024/01/29 02:15:21;;;;;;;12.90;5.67;;;;;;;;;;5034500;28;20213;-85
2024/01/29 02:17:47;;;;;;;8.90;5.13;;;11.80;99.90;;;;;;5034837;28;20178;-84
2024/01/29 02:20:14;;;;;;;12.93;5.60;;;11.90;99.90;;;;;;5034740;28;20182;-83
2024/01/29 02:22:44;;;;;;;9.73;5.20;;;11.90;99.90;;;;;;5034713;28;20227;-85
2024/01/29 02:25:10;;;;;;;10.47;5.37;;;;;;;;;;5034579;28;20178;-82
2024/01/29 02:27:36;;;;;;;8.33;5.17;;;11.60;99.90;;;;;;5034693;28;20224;-83
2024/01/29 02:30:02;;;;;;;12.33;5.57;;;12.10;99.90;;;;;;5034624;28;20174;-83
2024/01/29 02:32:28;;;;;;;16.80;6.30;;;;;;;;;;5034795;28;20166;-83
2024/01/29 02:34:54;;;;;;;9.90;5.23;;;11.90;99.90;;;;;;5034476;28;20296;-84
2024/01/29 02:37:20;;;;;;;9.02;5.07;;;;;;;;;;5016374;28;20212;-84
2024/01/29 02:39:50;;;;;;;12.17;5.47;;;;;;;;;;5033556;28;20180;-84
2024/01/29 02:42:16;;;;;;;11.97;5.53;;;;;;;;;;5034173;28;20209;-83
2024/01/29 02:44:41;;;;;;;11.77;5.80;;;11.90;99.90;;;;;;5033993;28;20185;-84
2024/01/29 02:47:07;;;;;;;14.73;6.00;;;;;;;;;;5016490;28;20305;-84
2024/01/29 02:49:34;;;;;;;14.23;5.73;;;;;;;;;;5034414;28;20170;-85
2024/01/29 02:52:00;;;;;;;12.27;5.97;;;;;;;;;;5034410;28;20303;-84
2024/01/29 02:54:25;;;;;;;10.07;5.77;;;11.60;99.90;;;;;;5034191;28;20208;-84
2024/01/29 02:56:51;;;;;;;12.47;5.57;;;;;;;;;;5034803;28;20186;-88
2024/01/29 02:59:17;;;;;;;10.60;6.03;;;11.60;99.90;;;;;;5035250;28;20171;-88
2024/01/29 03:01:43;;;;;;;14.07;6.33;;;;;;;;;;5017511;28;20707;-87
2024/01/29 03:04:09;;;;;;;12.57;6.23;;;11.50;99.90;;;;;;5034624;28;20565;-87
2024/01/29 03:06:35;;;;;;;14.17;5.90;;;;;;;;;;5035003;28;20182;-87
2024/01/29 03:09:01;;;;;;;14.10;6.73;;;;;;;;;;5034865;28;20232;-88
2024/01/29 03:11:26;;;;;;;18.03;7.03;;;11.10;99.90;;;;;;5035321;28;20193;-88
2024/01/29 03:13:52;;;;;;;10.80;5.77;;;11.30;99.90;;;;;;5034852;28;20185;-88
2024/01/29 03:16:18;;;;;;;10.70;5.70;;;;;;;;;;5031530;28;20186;-87
2024/01/29 03:18:44;;;;;;;12.77;5.67;;;;;;;;;;5015540;28;20182;-87
2024/01/29 03:21:10;;;;;;;12.63;5.83;;;;;;;;;;5020600;28;20181;-87
2024/01/29 03:23:36;;;;;;;9.60;5.40;;;11.30;99.90;;;;;;5034713;28;20270;-87
2024/01/29 03:26:02;;;;;;;12.03;5.73;;;;;;;;;;5034418;28;20661;-87
2024/01/29 03:28:27;;;;;;;10.33;5.00;;;10.90;99.90;;;;;;5034590;28;20182;-88
2024/01/29 03:30:53;;;;;;;9.47;4.97;;;;;;;;;;5035043;28;20162;-89
2024/01/29 03:33:19;;;;;;;10.70;5.10;;;11.20;99.90;;;;;;5034804;28;20224;-89
2024/01/29 03:35:45;;;;;;;9.50;4.63;;;;;;;;;;5035613;28;20205;-90
2024/01/29 03:38:11;;;;;;;6.93;4.30;;;10.90;99.90;;;;;;5038910;28;20632;-89
2024/01/29 03:40:37;;;;;;;11.60;4.87;;;10.90;99.90;;;;;;5051257;28;20170;-88
2024/01/29 03:43:02;;;;;;;10.60;4.73;;;11.00;99.90;;;;;;5052371;28;20221;-88
2024/01/29 03:45:28;;;;;;;9.83;4.43;;;;;;;;;;5022517;28;20217;-88
2024/01/29 03:47:54;;;;;;;7.73;4.17;;;11.00;99.90;;;;;;5036032;28;20186;-90
2024/01/29 03:50:20;;;;;;;11.07;4.67;;;11.00;99.90;;;;;;5034416;28;20593;-89
2024/01/29 03:52:47;;;;;;;9.77;4.43;;;;;;;;;;5034117;28;20629;-90
2024/01/29 03:55:13;;;;;;;11.20;4.30;;;10.90;99.90;;;;;;5034091;28;20206;-89
2024/01/29 03:57:39;;;;;;;7.37;3.90;;;10.90;99.90;;;;;;5034540;28;20243;-91
2024/01/29 04:00:09;;;;;;;7.37;3.67;;;10.80;99.90;;;;;;4997876;28;20191;-83
2024/01/29 04:02:35;;;;;;;6.00;3.77;;;;;;;;;;5032118;28;20607;-84
2024/01/29 04:05:00;;;;;;;6.10;3.80;;;11.30;99.90;;;;;;5032946;28;20755;-88
2024/01/29 04:07:27;;;;;;;9.07;3.80;;;11.20;99.90;;;;;;5033167;28;20213;-87
2024/01/29 04:09:53;;;;;;;9.03;3.80;;;;;;;;;;5032946;28;20177;-85
2024/01/29 04:12:19;;;;;;;7.93;3.53;;;11.20;99.90;;;;;;5032133;28;20178;-85
2024/01/29 04:14:45;;;;;;;9.80;3.90;;;11.40;99.90;;;;;;5034743;28;20676;-92
2024/01/29 04:17:12;;;;;;;6.23;3.10;;;11.20;99.90;;;;;;5050936;28;20169;-92
2024/01/29 04:19:38;;;;;;;7.87;3.50;;;11.50;99.90;;;;;;5040444;28;20193;-93
2024/01/29 04:22:05;;;;;;;8.67;3.60;;;;;;;;;;5033425;28;20501;-83
2024/01/29 04:24:31;;;;;;;7.03;3.43;;;;;;;;;;5032575;28;20174;-85
2024/01/29 04:26:57;;;;;;;6.73;3.17;;;11.60;99.90;;;;;;5031359;28;20239;-88
2024/01/29 04:29:23;;;;;;;5.77;3.20;;;11.80;99.90;;;;;;5033144;28;20575;-89
2024/01/29 04:31:49;;;;;;;5.80;3.07;;;11.50;99.90;;;;;;5033455;28;20165;-89
2024/01/29 04:34:14;;;;;;;8.93;3.73;;;11.50;99.90;;;;;;5033531;28;20204;-89
2024/01/29 04:36:40;;;;;;;7.37;3.03;;;11.70;99.90;;;;;;5033311;28;20182;-89
2024/01/29 04:39:06;;;;;;;5.80;2.77;;;11.70;99.90;;;;;;5033370;28;20649;-89
2024/01/29 04:41:32;;;;;;;5.03;3.07;;;;;;;;;;5033057;28;20633;-89
2024/01/29 04:43:57;;;;;;;5.93;3.00;;;11.50;99.90;;;;;;5033381;28;20517;-90
2024/01/29 04:46:23;;;;;;;6.03;3.13;;;11.50;99.90;;;;;;5033218;28;20248;-88
2024/01/29 04:48:49;;;;;;;6.33;3.03;;;11.50;99.90;;;;;;5033622;28;20185;-90
2024/01/29 04:51:15;;;;;;;7.83;3.50;;;11.40;99.90;;;;;;5033455;28;20177;-90
2024/01/29 04:53:41;;;;;;;7.93;3.40;;;11.40;99.90;;;;;;5034034;28;20201;-89
2024/01/29 04:56:07;;;;;;;8.00;3.50;;;11.20;99.90;;;;;;5031574;28;20719;-84
2024/01/29 04:58:33;;;;;;;9.43;3.43;;;11.50;99.90;;;;;;5032876;28;20220;-89
2024/01/29 05:01:00;;;;;;;6.67;3.10;;;11.10;99.90;;;;;;5035676;28;20169;-88
2024/01/29 05:03:26;;;;;;;8.90;3.30;;;11.30;99.90;;;;;;5050242;28;20253;-88
2024/01/29 05:05:52;;;;;;;9.00;3.20;;;;;;;;;;5051012;28;20181;-88
2024/01/29 05:08:18;;;;;;;7.93;3.50;;;11.10;99.90;;;;;;5050774;28;20170;-90
2024/01/29 05:10:45;;;;;;;8.97;3.57;;;11.90;99.90;;;;;;5048980;28;20231;-83
2024/01/29 05:13:11;;;;;;;9.90;3.50;;;11.30;99.90;;;;;;5035897;28;20181;-84
2024/01/29 05:15:37;;;;;;;10.37;3.83;;;11.20;99.90;;;;;;5036567;28;20210;-86
2024/01/29 05:18:03;;;;;;;5.40;3.13;;;11.10;99.90;;;;;;5035976;28;20178;-85
2024/01/29 05:20:29;;;;;;;10.13;3.97;;;11.40;99.90;;;;;;5035503;28;20193;-87
2024/01/29 05:22:55;;;;;;;7.03;3.50;;;11.30;99.90;;;;;;5035382;28;20273;-84
2024/01/29 05:25:21;;;;;;;7.63;3.43;;;11.60;99.90;;;;;;5031814;28;20209;-84
2024/01/29 05:27:47;;;;;;;8.90;3.53;;;11.50;99.90;;;;;;5031883;28;20640;-86
2024/01/29 05:30:14;;;;;;;7.33;3.30;;;11.60;99.90;;;;;;5031752;28;20158;-86
2024/01/29 05:32:40;;;;;;;8.87;3.30;;;;;;;;;;5031700;28;20190;-85
2024/01/29 05:35:06;;;;;;;6.03;2.80;;;12.00;99.90;;;;;;5031539;28;20239;-84
2024/01/29 05:37:34;;;;;;;11.00;3.73;;;;;;;;;;5031370;28;20200;-85
2024/01/29 05:40:00;;;;;;;7.23;3.07;;;14.20;99.90;;;;;;5033892;28;20560;-86
2024/01/29 05:42:25;;;;;;;7.63;3.43;;;11.90;99.90;;;;;;5036057;28;20169;-86
2024/01/29 05:44:51;;;;;;;7.40;3.27;;;;;;;;;;5035898;28;20538;-86
2024/01/29 05:47:17;;;;;;;6.53;3.10;;;12.00;99.90;;;;;;5044406;28;20226;-85
2024/01/29 05:49:43;;;;;;;8.17;3.40;;;12.10;99.90;;;;;;5042399;28;20178;-89
2024/01/29 05:52:09;;;;;;;9.13;3.87;;;12.30;99.90;;;;;;5035330;28;20571;-82
2024/01/29 05:54:35;;;;;;;10.63;4.30;;;;;;;;;;5017163;28;20209;-82
2024/01/29 05:57:01;;;;;;;10.37;4.00;;;;;;;;;;5034348;28;20177;-81
2024/01/29 05:59:27;;;;;;;8.63;3.60;;;12.40;99.90;;;;;;5034983;28;20231;-80
2024/01/29 06:01:52;;;;;;;9.13;3.90;;;12.10;99.90;;;;;;5016204;28;20601;-81
2024/01/29 06:04:18;;;;;;;5.57;2.70;;;;;;;;;;5016982;28;20588;-81
2024/01/29 06:06:44;;;;;;;10.57;3.93;;;12.00;99.90;;;;;;5017340;28;20659;-80
2024/01/29 06:09:10;;;;;;;10.37;4.00;;;12.00;99.90;;;;;;5034664;28;20188;-79
2024/01/29 06:11:39;;;;;;;8.97;4.30;;;12.00;99.90;;;;;;5034605;28;20215;-81
2024/01/29 06:14:04;;;;;;;8.87;3.97;;;12.00;99.90;;;;;;5026148;28;20536;-84
2024/01/29 06:16:30;;;;;;;11.17;4.17;;;11.90;99.90;;;;;;5019728;28;20190;-83
2024/01/29 06:18:56;;;;;;;7.70;3.43;;;;;;;;;;5034529;28;20327;-84
2024/01/29 06:21:22;;;;;;;9.47;3.90;;;11.80;99.90;;;;;;5034670;28;20170;-83
2024/01/29 06:23:48;;;;;;;13.73;5.03;;;11.80;99.90;;;;;;5017376;28;20181;-86
2024/01/29 06:26:14;;;;;;;8.60;3.97;;;11.80;99.90;;;;;;5035364;28;20182;-87
2024/01/29 06:28:43;;;;;;;8.60;4.03;;;11.90;99.90;;;;;;5035512;28;20185;-87
2024/01/29 06:31:09;;;;;;;10.13;4.20;;;11.80;99.90;;;;;;5035584;28;20189;-88
2024/01/29 06:33:35;;;;;;;12.57;4.60;;;11.60;99.90;;;;;;5035131;28;20177;-83
2024/01/29 06:36:02;;;;;;;10.57;3.80;;;11.80;99.90;;;;;;5034160;28;20224;-82
2024/01/29 06:38:28;;;;;;;10.33;4.27;;;11.90;99.90;;;;;;5034338;28;20174;-82
2024/01/29 06:40:54;;;;;;;9.00;4.10;;;11.70;99.90;;;;;;5034300;28;20170;-83
2024/01/29 06:43:20;;;;;;;9.83;4.17;;;;;;;;;;5034304;28;20170;-82
2024/01/29 06:45:45;;;;;;;10.17;4.00;;;11.40;99.90;;;;;;5016272;28;20225;-83
2024/01/29 06:48:11;;;;;;;10.80;4.00;;;11.90;99.90;;;;;;5033957;28;20533;-82
2024/01/29 06:50:39;;;;;;;9.27;3.97;;;11.60;99.90;;;;;;5033716;28;20178;-82
2024/01/29 06:53:04;;;;;;;10.30;4.60;;;11.50;99.90;;;;;;5016142;28;20181;-82
2024/01/29 06:55:30;;;;;;;10.13;4.30;;;11.60;99.90;;;;;;5033625;28;20205;-82
2024/01/29 06:57:56;;;;;;;13.33;4.67;;;11.70;99.90;;;;;;5033968;28;20216;-82
2024/01/29 07:00:22;;;;;;;10.70;4.13;;;11.80;99.90;;;;;;5033752;28;20550;-85
2024/01/29 07:02:47;;;;;;;9.50;4.00;;;11.80;99.90;;;;;;5033791;28;20578;-82
2024/01/29 07:05:13;;;;;;;7.13;3.50;;;;;;;;;;5033804;28;20165;-82
2024/01/29 07:07:39;;;;;;;13.50;4.30;;;11.80;99.90;;;;;;5033595;28;20166;-83
2024/01/29 07:10:05;;;;;;;10.17;4.20;;;12.00;99.90;;;;;;5030507;28;20231;-82
2024/01/29 07:12:31;;;;;;;9.63;4.10;;;12.30;99.90;;;;;;5035817;28;20178;-81
2024/01/29 07:14:57;;;;;;;10.00;4.03;;;11.70;99.90;;;;;;5015256;28;20247;-83
2024/01/29 07:17:23;;;;;;;10.93;4.07;;;11.90;99.90;;;;;;5035625;28;20174;-82
2024/01/29 07:19:51;;;;;;;9.23;3.63;;;;;;;;;;5033941;28;20173;-86
2024/01/29 07:22:21;;;;;;;8.00;3.17;;;12.10;99.90;;;;;;5033852;28;20201;-86
2024/01/29 07:24:48;;;;;;;10.17;4.00;;;12.10;99.90;;;;;;5033988;28;20257;-86
2024/01/29 07:27:15;;;;;;;8.40;3.10;;;12.20;99.90;;;;;;5034173;28;20174;-86
2024/01/29 07:29:41;;;;;;;7.47;2.83;;;11.90;99.90;;;;;;5050848;28;20188;-86
2024/01/29 07:32:07;;;;;;;6.17;2.80;;;11.80;99.90;;;;;;5051412;28;20174;-87
2024/01/29 07:34:33;;;;;;;8.50;3.20;;;;;;;;;;5016386;28;20700;-86
2024/01/29 07:36:59;;;;;;;10.07;3.43;;;11.80;99.90;;;;;;5033857;28;20220;-86
2024/01/29 07:39:25;;;;;;;8.87;3.10;;;11.60;99.90;;;;;;5016220;28;20275;-87
2024/01/29 07:41:51;;;;;;;7.60;3.03;;;11.90;99.90;;;;;;5016185;28;20174;-87
2024/01/29 07:44:17;;;;;;;8.00;3.00;;;11.70;99.90;;;;;;5034692;28;20537;-87
2024/01/29 07:46:43;;;;;;;9.43;3.03;;;11.70;99.90;;;;;;5033557;28;20249;-83
2024/01/29 07:49:09;;;;;;;8.17;2.80;;;11.90;99.90;;;;;;5033120;28;20186;-84
2024/01/29 07:51:35;;;;;;;8.20;3.07;;;11.80;99.90;;;;;;5036508;28;20247;-85
2024/01/29 07:54:01;;;;;;;7.27;2.93;;;;;;;;;;5054498;28;20166;-82
2024/01/29 07:56:27;;;;;;;6.47;2.77;;;;;;;;;;5040006;28;20178;-85
2024/01/29 07:58:53;;;;;;;4.83;2.33;;;11.90;99.90;;;;;;5034408;28;20193;-85
2024/01/29 08:01:18;;;;;;;7.30;2.90;;;11.80;99.90;;;;;;5005513;28;20618;-87
2024/01/29 08:03:44;;;;;;;8.47;3.10;;;12.00;99.90;;;;;;5031369;28;20313;-83
2024/01/29 08:06:10;;;;;;;6.23;2.77;;;;;;;;;;5032150;28;20667;-81
2024/01/29 08:08:36;;;;;;;6.83;2.97;;;11.70;99.90;;;;;;5034236;28;20224;-81
2024/01/29 08:11:03;;;;;;;5.40;2.83;;;11.80;99.90;;;;;;5032189;28;20224;-78
2024/01/29 08:13:28;;;;;;;5.63;2.80;;;11.90;99.90;;;;;;5032094;28;20174;-81
2024/01/29 08:15:55;;;;;;;6.53;3.03;;;12.00;99.90;;;;;;5032126;28;20219;-82
2024/01/29 08:18:21;;;;;;;9.40;3.30;;;12.00;99.90;;;;;;5028542;28;20181;-79
2024/01/29 08:20:47;;;;;;;5.13;2.90;;;11.70;99.90;;;;;;5020148;28;20174;-79
2024/01/29 08:23:12;;;;;;;8.80;3.23;;;11.60;99.90;;;;;;5021604;28;20169;-77
2024/01/29 08:25:38;;;;;;;6.87;3.30;;;;;;;;;;5032145;28;20210;-81
2024/01/29 08:28:05;;;;;;;8.93;3.37;;;11.70;99.90;;;;;;5032034;28;20169;-79
2024/01/29 08:30:30;;;;;;;6.43;2.60;;;11.70;99.90;;;;;;5032017;28;20209;-80
2024/01/29 08:32:56;;;;;;;6.97;3.00;;;11.90;99.90;;;;;;5013722;28;20178;-81
2024/01/29 08:35:22;;;;;;;8.00;3.03;;;;;;;;;;5033055;28;20225;-81
2024/01/29 08:37:48;;;;;;;5.73;3.10;;;11.60;99.90;;;;;;5031957;28;20205;-82
2024/01/29 08:40:14;;;;;;;5.93;2.70;;;11.70;99.90;;;;;;5025135;28;20175;-80
2024/01/29 08:42:40;;;;;;;5.87;2.90;;;11.50;99.90;;;;;;5024670;28;20173;-78
2024/01/29 08:45:06;;;;;;;4.80;2.60;;;11.70;99.90;;;;;;5029948;28;20524;-82
2024/01/29 08:47:31;;;;;;;6.40;2.70;;;11.80;99.90;;;;;;5030904;28;20702;-79
2024/01/29 08:49:57;;;;;;;5.57;2.70;;;;;;;;;;5012914;28;20409;-81
2024/01/29 08:52:23;;;;;;;7.40;3.47;;;;;;;;;;5030924;28;20184;-79
2024/01/29 08:54:49;;;;;;;6.20;3.00;;;11.70;99.90;;;;;;5031466;28;20210;-83
2024/01/29 08:57:15;;;;;;;6.27;3.20;;;11.60;99.90;;;;;;5013955;28;20538;-83
2024/01/29 08:59:44;;;;;;;6.73;3.23;;;11.80;99.90;;;;;;5028838;28;20225;-80
2024/01/29 09:02:10;;;;;;;7.03;2.93;;;11.60;99.90;;;;;;5028719;28;20188;-81
2024/01/29 09:04:36;;;;;;;8.70;3.10;;;11.70;99.90;;;;;;5031302;28;20637;-82
2024/01/29 09:07:02;;;;;;;7.27;3.07;;;11.50;99.90;;;;;;5018645;28;20192;-79
2024/01/29 09:09:28;;;;;;;6.57;3.03;;;;;;;;;;5031127;28;20178;-81
2024/01/29 09:11:54;;;;;;;6.50;3.23;;;11.70;99.90;;;;;;5030755;28;20184;-80
2024/01/29 09:14:21;;;;;;;8.23;3.40;;;;;;;;;;5030149;28;20170;-82
2024/01/29 09:16:47;;;;;;;6.67;2.80;;;11.50;99.90;;;;;;5031204;28;20174;-81
2024/01/29 09:19:14;;;;;;;5.83;2.90;;;11.40;99.90;;;;;;5031192;28;20181;-82
2024/01/29 09:21:41;;;;;;;8.03;3.20;;;11.70;99.90;;;;;;5029397;28;20457;-81
2024/01/29 09:24:07;;;;;;;6.47;3.03;;;11.60;99.90;;;;;;5028338;28;20665;-81
2024/01/29 09:26:33;;;;;;;5.93;3.37;;;;;;;;;;5030959;28;20180;-80
2024/01/29 09:28:59;;;;;;;9.70;3.77;;;11.70;99.90;;;;;;5030383;28;20178;-76
2024/01/29 09:31:25;;;;;;;6.97;3.40;;;;;;;;;;5030323;28;20180;-82
2024/01/29 09:33:52;;;;;;;7.07;3.40;;;11.70;99.90;;;;;;5030733;28;20201;-76
2024/01/29 09:36:17;;;;;;;7.47;3.80;;;11.70;99.90;;;;;;5031144;28;20217;-76
2024/01/29 09:38:43;;;;;;;10.10;3.80;;;11.70;99.90;;;;;;5030405;28;20174;-76
2024/01/29 09:41:09;;;;;;;8.63;3.83;;;11.70;99.90;;;;;;5029969;28;20181;-75
2024/01/29 09:43:37;;;;;;;11.23;4.37;;;11.50;99.90;;;;;;5030137;28;20260;-76
2024/01/29 09:46:04;;;;;;;7.77;4.10;;;11.50;99.90;;;;;;5012706;28;20613;-77
2024/01/29 09:48:33;;;;;;;7.77;4.10;;;11.70;99.90;;;;;;5029297;28;20269;-78
2024/01/29 09:51:00;;;;;;;10.20;4.83;;;11.80;99.90;;;;;;5008323;28;20166;-81
2024/01/29 09:53:27;;;;;;;11.00;4.53;;;11.60;99.90;;;;;;5020612;28;20185;-79
2024/01/29 09:55:53;;;;;;;8.67;4.27;;;;;;;;;;5030505;28;20680;-79
2024/01/29 09:58:19;;;;;;;10.43;4.50;;;12.00;99.90;;;;;;5030401;28;20228;-79
2024/01/29 10:00:45;;;;;;;7.60;4.10;;;11.90;99.90;;;;;;5026841;28;20257;-78
2024/01/29 10:03:25;;;;;;;9.37;4.40;;;11.90;99.90;;;;;;5029824;28;20253;-79
2024/01/29 10:05:52;;;;;;;9.63;4.67;;;11.80;99.90;;;;;;5029971;28;20200;-77
2024/01/29 10:08:19;;;;;;;13.43;5.47;;;11.70;99.90;;;;;;5030377;28;20173;-78
2024/01/29 10:10:46;;;;;;;13.57;5.37;;;11.80;99.90;;;;;;5012952;28;20196;-78
2024/01/29 10:13:13;;;;;;;10.03;4.80;;;11.60;99.90;;;;;;5031161;28;20548;-74
2024/01/29 10:15:41;;;;;;;8.97;4.57;;;11.60;99.90;;;;;;5028444;28;20686;-77
2024/01/29 10:18:11;;;;;;;12.40;5.20;;;11.80;99.90;;;;;;5019166;28;20170;-75
2024/01/29 10:20:37;;;;;;;12.53;5.40;;;12.10;99.90;;;;;;5030529;28;20177;-75
2024/01/29 10:23:03;;;;;;;8.13;4.87;;;12.10;99.90;;;;;;5029226;28;20189;-76
2024/01/29 10:25:29;;;;;;;9.43;4.97;;;11.80;99.90;;;;;;5031140;28;20185;-75
2024/01/29 10:28:13;;;;;;;8.97;4.80;;;11.90;99.90;;;;;;5033870;28;20196;-76
2024/01/29 10:30:41;;;;;;;10.37;4.93;;;12.00;99.90;;;;;;5028812;28;20178;-74
2024/01/29 10:33:08;;;;;;;7.40;4.50;;;12.00;99.90;;;;;;5029703;28;20240;-75
2024/01/29 10:35:37;;;;;;;8.77;4.50;;;11.80;99.90;;;;;;5047520;28;20214;-75
2024/01/29 10:38:04;;;;;;;5.73;4.20;;;12.40;99.90;;;;;;5033722;28;20185;-75
2024/01/29 10:40:34;;;;;;;6.57;4.47;;;12.20;99.90;;;;;;5030981;28;20273;-75
2024/01/29 10:43:01;;;;;;;8.03;4.53;;;12.20;99.90;;;;;;5021293;28;20189;-75
2024/01/29 10:45:28;;;;;;;7.30;4.50;;;12.10;99.90;;;;;;5033836;28;20174;-76
2024/01/29 10:48:19;;;;;;;6.27;4.27;;;12.30;99.90;;;;;;5034000;28;20197;-75
2024/01/29 10:50:47;;;;;;;6.90;4.90;;;12.20;99.90;;;;;;5033426;28;20377;-76
2024/01/29 10:53:15;;;;;;;8.07;4.33;;;12.20;99.90;;;;;;5032955;28;20273;-76
2024/01/29 10:55:46;;;;;;;5.80;4.50;;;12.40;99.90;;;;;;5033305;28;20297;-76
2024/01/29 10:58:16;;;;;;;6.30;4.40;;;12.30;99.90;;;;;;5030648;28;20178;-74
2024/01/29 11:00:44;;;;;;;8.23;5.00;;;12.50;99.90;;;;;;5033275;28;20178;-73
2024/01/29 11:03:12;;;;;;;8.10;4.70;;;12.20;99.90;;;;;;5026391;28;20177;-75
2024/01/29 11:05:40;;;;;;;7.07;4.70;;;12.50;99.90;;;;;;5013733;28;20179;-75
2024/01/29 11:08:11;;;;;;;9.20;4.80;;;12.40;99.90;;;;;;4995930;28;20182;-75
2024/01/29 11:10:37;;;;;;;8.63;4.77;;;12.50;99.90;;;;;;5013625;28;20193;-75
2024/01/29 11:13:04;;;;;;;5.23;4.47;;;12.20;99.90;;;;;;5022819;28;20633;-75
2024/01/29 11:15:31;;;;;;;9.20;4.40;;;12.50;99.90;;;;;;5032613;28;20205;-75
2024/01/29 11:17:57;;;;;;;6.43;4.67;;;12.60;99.90;;;;;;5032656;28;20227;-75
2024/01/29 11:20:24;;;;;;;8.63;5.10;;;;;;;;;;5031900;28;20245;-75
2024/01/29 11:22:59;;;;;;;9.03;4.60;;;12.60;99.90;;;;;;5031593;28;20581;-76
2024/01/29 11:25:29;;;;;;;8.23;4.80;;;12.70;99.90;;;;;;5014288;28;20181;-75
2024/01/29 11:27:58;;;;;;;7.13;4.33;;;12.70;99.90;;;;;;5031680;28;20166;-75
2024/01/29 11:30:26;;;;;;;4.20;3.80;;;12.80;99.90;;;;;;5030672;28;20174;-76
2024/01/29 11:32:54;;;;;;;5.80;4.60;;;12.40;99.90;;;;;;5013457;28;20269;-76
2024/01/29 11:35:21;;;;;;;6.40;4.37;;;12.50;99.90;;;;;;5029452;28;20567;-75
2024/01/29 11:37:49;;;;;;;9.57;4.20;;;12.50;99.90;;;;;;5018034;28;20181;-75
2024/01/29 11:40:40;;;;;;;10.40;4.50;;;12.60;99.90;;;;;;5032736;28;20174;-74
2024/01/29 11:43:17;;;;;;;6.80;4.37;;;13.10;99.90;;;;;;5021390;28;20202;-77
2024/01/29 11:45:47;;;;;;;10.93;4.90;;;12.90;99.90;;;;;;5012633;28;20696;-78
2024/01/29 11:48:15;;;;;;;8.00;5.00;;;13.00;99.90;;;;;;5011595;28;20182;-75
2024/01/29 11:50:44;;;;;;;7.97;4.13;;;13.10;99.90;;;;;;5016360;28;20206;-75
2024/01/29 11:53:14;;;;;;;10.33;4.83;;;13.10;99.90;;;;;;5032442;28;20668;-75
2024/01/29 11:55:41;;;;;;;6.23;4.13;;;13.20;99.90;;;;;;5031400;28;20250;-74
2024/01/29 11:58:18;;;;;;;10.27;4.55;;;13.20;99.90;;;;;;5030441;28;20170;-74
2024/01/29 12:00:45;;;;;;;9.00;4.50;;;13.30;99.90;;;;;;5030474;28;20303;-74
2024/01/29 12:03:34;;;;;;;11.52;4.80;;;13.20;99.90;;;;;;5030024;28;20185;-75
2024/01/29 12:06:01;;;;;;;12.45;5.18;;;13.20;99.90;;;;;;5030351;28;20177;-75
2024/01/29 12:08:27;;;;;;;6.63;4.00;;;13.40;99.90;;;;;;5030502;28;20166;-75
2024/01/29 12:11:01;;;;;;;12.83;5.43;;;13.20;99.90;;;;;;5030900;28;20164;-75
2024/01/29 12:13:27;;;;;;;8.37;4.70;;;13.50;99.90;;;;;;5031535;28;20177;-74
2024/01/29 12:15:53;;;;;;;9.32;4.13;;;13.50;99.90;;;;;;5014268;28;20623;-75
2024/01/29 12:18:24;;;;;;;8.63;4.90;;;13.70;99.90;;;;;;5032126;28;20166;-75
2024/01/29 12:20:50;;;;;;;8.88;4.78;;;14.90;99.90;;;;;;5014138;28;20177;-75
2024/01/29 12:23:17;;;;;;;9.07;4.95;;;14.90;99.90;;;;;;5031512;28;20170;-75
2024/01/29 12:25:52;;;;;;;10.50;5.47;;;14.20;99.90;;;;;;5031947;28;20169;-75
2024/01/29 12:28:18;;;;;;;9.65;4.45;;;;;;;;;;5032982;28;20252;-76
2024/01/29 12:30:58;;;;;;;9.07;5.35;;;15.20;99.90;;;;;;5030685;28;20228;-77
2024/01/29 12:33:28;;;;;;;17.30;5.47;;;14.60;99.90;;;;;;5027614;28;20174;-76
2024/01/29 12:35:55;;;;;;;8.18;4.38;;;;;;;;;;5011111;28;20683;-75
2024/01/29 12:38:23;;;;;;;10.73;5.70;;;15.70;99.90;;;;;;5013894;28;20180;-75
2024/01/29 12:40:55;;;;;;;12.30;5.47;;;15.80;99.90;;;;;;5031659;28;20180;-75
2024/01/29 12:43:28;;;;;;;7.13;2.97;;;15.60;99.90;;;;;;5031107;28;20174;-76
2024/01/29 12:46:09;;;;;;;14.07;4.03;;;14.50;99.90;;;;;;5031585;28;20213;-75
2024/01/29 12:48:36;;;;;;;14.05;6.03;;;;;;;;;;5031163;28;20208;-75
2024/01/29 12:51:02;;;;;;;12.32;5.18;;;14.00;99.90;;;;;;5024531;28;20170;-75
2024/01/29 12:53:28;;;;;;;10.93;4.97;;;13.40;99.90;;;;;;5027402;28;20174;-75
2024/01/29 12:55:54;;;;;;;10.43;4.93;;;13.20;99.90;;;;;;5012010;28;20237;-75
2024/01/29 12:58:20;;;;;;;12.73;5.13;;;13.00;99.90;;;;;;5011770;28;20210;-74
2024/01/29 13:00:46;;;;;;;7.75;3.28;;;13.20;99.90;;;;;;5015409;28;20273;-74
2024/01/29 13:03:11;;;;;;;9.20;4.60;;;13.20;99.90;;;;;;5026052;28;20656;-74